createdAt,value
2018-12-16T00:04:14.879Z,10.30
2018-12-16T00:06:44.502Z,9.40
2018-12-16T00:09:14.303Z,11.40
2018-12-16T00:11:44.061Z,9.93
2018-12-16T00:14:13.881Z,9.30
2018-12-16T00:16:46.019Z,10.30
2018-12-16T00:19:16.967Z,10.43
2018-12-16T00:21:46.976Z,9.87
2018-12-16T00:24:16.652Z,9.77
2018-12-16T00:27:03.530Z,10.80
2018-12-16T00:29:33.152Z,9.40
2018-12-16T00:32:02.940Z,9.13
2018-12-16T00:34:32.528Z,9.53
2018-12-16T00:37:02.224Z,10.20
2018-12-16T00:39:31.826Z,9.73
2018-12-16T00:42:01.464Z,10.40
2018-12-16T00:44:32.039Z,10.47
2018-12-16T00:47:01.642Z,10.13
2018-12-16T00:49:31.396Z,9.53
2018-12-16T00:52:01.266Z,9.63
2018-12-16T00:54:32.412Z,9.83
2018-12-16T00:57:02.006Z,9.60
2018-12-16T00:59:31.698Z,10.43
2018-12-16T01:02:01.336Z,9.33
2018-12-16T01:04:31.022Z,10.13
2018-12-16T01:07:00.991Z,9.47
2018-12-16T01:09:30.631Z,9.83
2018-12-16T01:12:00.979Z,8.90
2018-12-16T01:14:30.663Z,9.97
2018-12-16T01:17:00.427Z,10.57
2018-12-16T01:19:35.983Z,9.47
2018-12-16T01:22:05.608Z,10.40
2018-12-16T01:24:35.388Z,10.50
2018-12-16T01:27:05.716Z,9.70
2018-12-16T01:29:35.307Z,10.63
2018-12-16T01:32:04.964Z,10.60
2018-12-16T01:34:34.624Z,9.70
2018-12-16T01:37:04.287Z,9.87
2018-12-16T01:39:33.981Z,9.57
2018-12-16T01:42:03.869Z,9.80
2018-12-16T01:44:33.600Z,9.97
2018-12-16T01:47:03.324Z,10.47
2018-12-16T01:49:32.897Z,9.57
2018-12-16T01:52:02.583Z,10.13
2018-12-16T01:54:32.243Z,9.40
2018-12-16T01:57:02.639Z,9.37
2018-12-16T01:59:34.441Z,9.63
2018-12-16T02:02:04.852Z,9.73
2018-12-16T02:04:35.677Z,9.50
2018-12-16T02:07:05.424Z,9.87
2018-12-16T02:09:35.148Z,10.23
2018-12-16T02:12:04.892Z,10.63
2018-12-16T02:14:35.206Z,11.10
2018-12-16T02:17:04.882Z,10.73
2018-12-16T02:19:34.671Z,10.87
2018-12-16T02:22:04.300Z,10.17
2018-12-16T02:24:34.314Z,10.07
2018-12-16T02:27:03.902Z,9.90
2018-12-16T02:29:33.673Z,10.37
2018-12-16T02:32:03.605Z,10.23
2018-12-16T02:34:33.231Z,10.80
2018-12-16T02:37:02.827Z,9.77
2018-12-16T02:39:33.714Z,10.60
2018-12-16T02:42:03.349Z,10.77
2018-12-16T02:44:33.143Z,10.37
2018-12-16T02:47:02.778Z,10.00
2018-12-16T02:49:32.473Z,10.83
2018-12-16T02:52:02.083Z,11.40
2018-12-16T02:54:31.700Z,10.97
2018-12-16T02:57:01.333Z,10.40
2018-12-16T02:59:30.951Z,11.30
2018-12-16T03:02:02.968Z,11.27
2018-12-16T03:04:32.590Z,11.50
2018-12-16T03:07:02.180Z,10.63
2018-12-16T03:09:31.793Z,11.17
2018-12-16T03:12:02.465Z,10.33
2018-12-16T03:14:32.182Z,10.80
2018-12-16T03:17:02.581Z,11.00
2018-12-16T03:22:34.459Z,10.67
2018-12-16T03:25:04.388Z,10.53
2018-12-16T03:27:34.028Z,10.10
2018-12-16T03:30:04.905Z,12.30
2018-12-16T03:32:34.520Z,12.03
2018-12-16T03:35:09.004Z,10.80
2018-12-16T03:37:38.885Z,11.33
2018-12-16T03:40:13.113Z,10.63
2018-12-16T03:42:48.966Z,11.10
2018-12-16T03:45:18.955Z,10.27
2018-12-16T03:47:48.771Z,11.47
2018-12-16T03:50:18.435Z,11.60
2018-12-16T03:52:48.277Z,10.67
2018-12-16T03:55:18.507Z,11.47
2018-12-16T03:57:50.885Z,11.87
2018-12-16T04:00:21.659Z,10.97
2018-12-16T04:02:53.912Z,11.50
2018-12-16T04:05:26.389Z,11.43
2018-12-16T04:07:55.953Z,12.27
2018-12-16T04:10:25.731Z,11.60
2018-12-16T04:12:57.162Z,11.13
2018-12-16T04:15:31.108Z,12.80
2018-12-16T04:18:00.758Z,11.73
2018-12-16T04:20:30.350Z,11.83
2018-12-16T04:22:59.965Z,11.73
2018-12-16T04:25:29.750Z,11.13
2018-12-16T04:27:59.606Z,12.10
2018-12-16T04:30:29.235Z,11.07
2018-12-16T04:32:59.177Z,13.00
2018-12-16T04:35:28.828Z,11.23
2018-12-16T04:37:58.704Z,12.40
2018-12-16T04:40:28.341Z,12.30
2018-12-16T04:42:58.011Z,12.47
2018-12-16T04:45:27.612Z,11.90
2018-12-16T04:47:57.361Z,11.70
2018-12-16T04:50:27.418Z,12.93
2018-12-16T04:52:57.116Z,11.33
2018-12-16T04:55:26.744Z,12.57
2018-12-16T04:57:56.529Z,12.13
2018-12-16T05:00:26.197Z,13.23
2018-12-16T05:02:57.524Z,12.97
2018-12-16T05:05:28.413Z,12.80
2018-12-16T05:07:58.351Z,13.70
2018-12-16T05:10:31.303Z,13.63
2018-12-16T05:13:00.937Z,12.20
2018-12-16T05:15:35.056Z,13.43
2018-12-16T05:18:12.313Z,13.23
2018-12-16T05:20:42.021Z,12.63
2018-12-16T05:23:11.718Z,13.80
2018-12-16T05:25:41.335Z,14.43
2018-12-16T05:28:11.234Z,14.30
2018-12-16T05:30:40.879Z,13.30
2018-12-16T05:33:10.580Z,13.87
2018-12-16T05:35:40.226Z,13.83
2018-12-16T05:38:12.196Z,12.77
2018-12-16T05:40:41.949Z,12.77
2018-12-16T05:43:11.646Z,14.63
2018-12-16T05:45:41.375Z,14.03
2018-12-16T05:48:11.039Z,13.20
2018-12-16T05:50:40.752Z,13.97
2018-12-16T05:53:10.574Z,14.60
2018-12-16T05:55:40.208Z,13.30
2018-12-16T05:58:10.251Z,13.10
2018-12-16T06:00:40.255Z,14.43
2018-12-16T06:03:09.857Z,14.07
2018-12-16T06:05:39.486Z,13.00
2018-12-16T06:08:09.114Z,13.63
2018-12-16T06:10:38.719Z,13.77
2018-12-16T06:13:08.383Z,12.03
2018-12-16T06:15:38.091Z,13.63
2018-12-16T06:18:07.710Z,12.90
2018-12-16T06:20:37.328Z,13.03
2018-12-16T06:23:08.231Z,13.20
2018-12-16T06:25:37.971Z,13.83
2018-12-16T06:28:07.657Z,12.50
2018-12-16T06:30:37.780Z,12.87
2018-12-16T06:33:07.421Z,12.43
2018-12-16T06:35:37.055Z,12.50
2018-12-16T06:38:06.711Z,13.93
2018-12-16T06:40:36.382Z,14.37
2018-12-16T06:43:06.210Z,12.57
2018-12-16T06:45:37.834Z,13.63
2018-12-16T06:48:07.519Z,13.37
2018-12-16T06:50:37.116Z,13.80
2018-12-16T06:53:06.950Z,13.20
2018-12-16T06:55:43.092Z,13.60
2018-12-16T06:58:08.550Z,12.83
2018-12-16T07:00:38.168Z,13.33
2018-12-16T07:03:11.773Z,13.53
2018-12-16T07:05:41.401Z,12.97
2018-12-16T07:08:11.003Z,14.60
2018-12-16T07:10:41.671Z,12.67
2018-12-16T07:13:12.452Z,13.33
2018-12-16T07:15:42.088Z,13.97
2018-12-16T07:18:12.766Z,13.03
2018-12-16T07:20:42.372Z,13.57
2018-12-16T07:23:12.039Z,12.63
2018-12-16T07:25:41.693Z,13.47
2018-12-16T07:28:11.344Z,14.10
2018-12-16T07:30:41.231Z,14.23
2018-12-16T07:33:10.920Z,13.27
2018-12-16T07:35:42.453Z,13.53
2018-12-16T07:38:12.175Z,13.93
2018-12-16T07:40:42.853Z,12.57
2018-12-16T07:43:12.501Z,13.80
2018-12-16T07:45:47.536Z,15.73
2018-12-16T07:48:17.502Z,14.03
2018-12-16T07:50:47.411Z,13.67
2018-12-16T07:53:17.094Z,12.43
2018-12-16T07:55:47.894Z,14.60
2018-12-16T07:58:18.321Z,14.57
2018-12-16T08:00:49.193Z,13.70
2018-12-16T08:03:20.474Z,14.07
2018-12-16T08:05:50.197Z,14.50
2018-12-16T08:08:20.953Z,14.57
2018-12-16T08:10:51.390Z,14.33
2018-12-16T08:13:21.109Z,12.67
2018-12-16T08:15:50.812Z,13.67
2018-12-16T08:18:21.395Z,14.47
2018-12-16T08:20:51.021Z,14.63
2018-12-16T08:23:24.177Z,14.33
2018-12-16T08:25:53.871Z,14.37
2018-12-16T08:28:24.513Z,14.80
2018-12-16T08:30:54.174Z,15.87
2018-12-16T08:33:26.096Z,13.73
2018-12-16T08:35:55.735Z,15.40
2018-12-16T08:38:25.435Z,14.70
2018-12-16T08:41:02.396Z,13.33
2018-12-16T08:43:32.138Z,13.40
2018-12-16T08:46:01.809Z,14.53
2018-12-16T08:48:33.434Z,13.37
2018-12-16T08:51:03.238Z,15.63
2018-12-16T08:56:30.028Z,15.77
2018-12-16T08:58:59.652Z,15.43
2018-12-16T09:01:31.767Z,16.20
2018-12-16T09:04:01.811Z,15.53
2018-12-16T09:06:35.960Z,15.97
2018-12-16T09:09:08.328Z,14.80
2018-12-16T09:11:39.486Z,15.60
2018-12-16T09:14:09.080Z,15.70
2018-12-16T09:16:38.664Z,14.57
2018-12-16T09:19:08.363Z,15.20
2018-12-16T09:21:38.973Z,14.90
2018-12-16T09:24:14.991Z,15.20
2018-12-16T09:26:44.610Z,13.57
2018-12-16T09:29:14.501Z,15.03
2018-12-16T09:31:44.096Z,15.63
2018-12-16T09:34:14.017Z,16.13
2018-12-16T09:36:48.665Z,16.40
2018-12-16T09:39:24.901Z,16.67
2018-12-16T09:42:01.520Z,15.50
2018-12-16T09:44:31.858Z,14.23
2018-12-16T09:47:02.773Z,16.33
2018-12-16T09:49:32.402Z,15.87
2018-12-16T09:52:12.768Z,16.00
2018-12-16T09:54:44.610Z,14.80
2018-12-16T09:57:16.598Z,14.60
2018-12-16T09:59:49.104Z,15.90
2018-12-16T10:02:18.729Z,15.97
2018-12-16T10:04:50.343Z,15.10
2018-12-16T10:07:20.089Z,15.00
2018-12-16T10:09:53.487Z,15.63
2018-12-16T10:12:23.200Z,14.27
2018-12-16T10:14:56.386Z,15.37
2018-12-16T10:17:26.362Z,16.53
2018-12-16T10:19:56.039Z,14.70
2018-12-16T10:22:25.701Z,14.07
2018-12-16T10:24:57.789Z,16.17
2018-12-16T10:27:29.327Z,15.30
2018-12-16T10:30:03.402Z,16.87
2018-12-16T10:32:34.374Z,15.27
2018-12-16T10:35:04.063Z,15.40
2018-12-16T10:37:33.748Z,15.13
2018-12-16T10:40:03.580Z,15.37
2018-12-16T10:42:34.074Z,15.77
2018-12-16T10:47:52.750Z,15.80
2018-12-16T10:50:24.300Z,15.47
2018-12-16T10:52:54.362Z,15.03
2018-12-16T10:55:25.669Z,15.40
2018-12-16T10:57:56.658Z,15.10
2018-12-16T11:00:32.555Z,14.57
2018-12-16T11:03:03.328Z,13.70
2018-12-16T11:05:34.666Z,14.33
2018-12-16T11:10:49.282Z,14.27
2018-12-16T11:13:19.247Z,14.40
2018-12-16T11:15:50.264Z,13.87
2018-12-16T11:18:21.467Z,13.90
2018-12-16T11:20:52.245Z,14.97
2018-12-16T11:23:25.451Z,12.77
2018-12-16T11:25:56.416Z,14.80
2018-12-16T11:28:26.053Z,14.43
2018-12-16T11:30:56.286Z,15.27
2018-12-16T11:33:25.989Z,13.83
2018-12-16T11:36:00.625Z,13.13
2018-12-16T11:38:31.879Z,15.60
2018-12-16T11:41:04.823Z,21.93
2018-12-16T11:43:34.476Z,19.83
2018-12-16T11:46:04.127Z,16.47
2018-12-16T11:48:33.754Z,14.67
2018-12-16T11:51:03.426Z,13.80
2018-12-16T11:53:34.996Z,14.70
2018-12-16T11:56:04.773Z,13.73
2018-12-16T11:58:34.359Z,15.37
2018-12-16T12:01:06.531Z,14.63
2018-12-16T12:03:37.111Z,14.20
2018-12-16T12:06:09.718Z,15.53
2018-12-16T12:08:46.139Z,15.60
2018-12-16T12:11:16.999Z,16.33
2018-12-16T12:13:48.241Z,16.17
2018-12-16T12:16:20.347Z,15.40
2018-12-16T12:18:59.618Z,14.13
2018-12-16T12:21:30.969Z,14.60
2018-12-16T12:24:03.761Z,14.80
2018-12-16T12:26:38.182Z,14.60
2018-12-16T12:29:09.820Z,14.90
2018-12-16T12:31:41.188Z,16.30
2018-12-16T12:34:12.095Z,14.03
2018-12-16T12:36:43.075Z,14.07
2018-12-16T12:39:18.672Z,14.70
2018-12-16T12:41:49.873Z,14.83
2018-12-16T12:44:20.883Z,14.57
2018-12-16T12:46:54.804Z,15.37
2018-12-16T12:49:25.337Z,14.47
2018-12-16T12:51:59.355Z,15.77
2018-12-16T12:54:31.060Z,14.70
2018-12-16T12:57:04.522Z,14.33
2018-12-16T12:59:36.186Z,15.67
2018-12-16T13:02:12.331Z,15.50
2018-12-16T13:04:43.302Z,13.73
2018-12-16T13:07:15.391Z,13.97
2018-12-16T13:09:51.858Z,14.83
2018-12-16T13:12:25.818Z,14.50
2018-12-16T13:14:58.740Z,14.17
2018-12-16T13:17:32.007Z,15.17
2018-12-16T13:20:03.334Z,14.77
2018-12-16T13:22:34.588Z,14.80
2018-12-16T13:25:23.932Z,16.33
2018-12-16T13:27:55.336Z,14.77
2018-12-16T13:30:27.444Z,15.97
2018-12-16T13:33:00.871Z,14.70
2018-12-16T13:35:39.181Z,16.73
2018-12-16T13:38:15.486Z,14.57
2018-12-16T13:40:48.583Z,14.87
2018-12-16T13:43:24.593Z,15.30
2018-12-16T13:45:57.931Z,15.07
2018-12-16T13:48:29.771Z,15.97
2018-12-16T13:51:05.420Z,14.57
2018-12-16T13:53:36.018Z,15.53
2018-12-16T13:56:10.346Z,14.77
2018-12-16T13:58:42.914Z,14.93
2018-12-16T14:01:17.400Z,14.47
2018-12-16T14:03:50.931Z,15.67
2018-12-16T14:06:21.945Z,15.50
2018-12-16T14:08:56.109Z,16.30
2018-12-16T14:11:28.558Z,14.67
2018-12-16T14:14:02.241Z,15.87
2018-12-16T14:16:37.693Z,14.67
2018-12-16T14:19:10.564Z,14.10
2018-12-16T14:21:43.311Z,15.50
2018-12-16T14:24:15.721Z,14.87
2018-12-16T14:26:47.388Z,16.07
2018-12-16T14:29:21.532Z,15.20
2018-12-16T14:31:56.937Z,15.00
2018-12-16T14:34:30.587Z,14.23
2018-12-16T14:37:02.562Z,14.30
2018-12-16T14:39:36.423Z,14.70
2018-12-16T14:42:07.622Z,15.20
2018-12-16T14:44:39.652Z,14.03
2018-12-16T14:47:10.584Z,15.43
2018-12-16T14:49:45.102Z,14.70
2018-12-16T14:52:19.830Z,14.73
2018-12-16T14:54:53.968Z,14.67
2018-12-16T14:57:27.682Z,14.77
2018-12-16T15:00:02.542Z,15.37
2018-12-16T15:02:34.024Z,18.73
2018-12-16T15:05:09.138Z,14.43
2018-12-16T15:07:41.464Z,14.93
2018-12-16T15:10:16.637Z,16.30
2018-12-16T15:12:48.175Z,15.53
2018-12-16T15:15:19.764Z,14.50
2018-12-16T15:17:53.394Z,16.67
2018-12-16T15:20:25.778Z,15.50
2018-12-16T15:22:57.919Z,14.53
2018-12-16T15:25:27.760Z,14.27
2018-12-16T15:28:00.020Z,14.93
2018-12-16T15:30:31.771Z,16.10
2018-12-16T15:33:03.165Z,15.93
2018-12-16T15:35:34.320Z,14.33
2018-12-16T15:38:05.168Z,14.87
2018-12-16T15:40:36.632Z,15.53
2018-12-16T15:43:08.062Z,15.93
2018-12-16T15:45:41.661Z,17.67
2018-12-16T15:48:13.125Z,15.80
2018-12-16T15:50:48.309Z,16.23
2018-12-16T15:53:19.179Z,15.90
2018-12-16T15:55:48.840Z,15.60
2018-12-16T15:58:18.783Z,13.80
2018-12-16T16:00:50.134Z,16.97
2018-12-16T16:03:21.340Z,16.87
2018-12-16T16:05:52.131Z,16.23
2018-12-16T16:08:26.882Z,16.60
2018-12-16T16:10:58.137Z,16.57
2018-12-16T16:13:27.823Z,15.60
2018-12-16T16:15:59.179Z,16.47
2018-12-16T16:18:30.656Z,16.47
2018-12-16T16:21:01.605Z,15.57
2018-12-16T16:23:36.036Z,16.87
2018-12-16T16:26:16.172Z,16.40
2018-12-16T16:28:47.789Z,14.97
2018-12-16T16:31:19.495Z,16.33
2018-12-16T16:33:51.786Z,15.93
2018-12-16T16:36:22.897Z,17.93
2018-12-16T16:38:54.361Z,16.20
2018-12-16T16:41:24.210Z,17.47
2018-12-16T16:43:57.624Z,17.30
2018-12-16T16:46:30.697Z,16.63
2018-12-16T16:49:02.976Z,16.50
2018-12-16T16:51:37.115Z,16.80
2018-12-16T16:54:08.369Z,16.40
2018-12-16T16:56:42.814Z,16.63
2018-12-16T16:59:19.425Z,16.57
2018-12-16T17:01:50.935Z,15.80
2018-12-16T17:04:25.366Z,17.30
2018-12-16T17:07:00.705Z,16.57
2018-12-16T17:09:34.003Z,17.03
2018-12-16T17:12:09.268Z,16.33
2018-12-16T17:14:40.226Z,15.93
2018-12-16T17:17:11.824Z,16.57
2018-12-16T17:19:46.846Z,17.53
2018-12-16T17:22:18.816Z,16.40
2018-12-16T17:24:48.976Z,17.90
2018-12-16T17:27:19.740Z,34.50
2018-12-16T17:29:49.459Z,20.10
2018-12-16T17:32:19.223Z,17.87
2018-12-16T17:34:49.171Z,18.63
2018-12-16T17:37:21.594Z,17.93
2018-12-16T17:39:51.411Z,17.30
2018-12-16T17:42:21.339Z,17.13
2018-12-16T17:44:50.931Z,18.17
2018-12-16T17:47:21.822Z,16.87
2018-12-16T17:49:51.466Z,19.53
2018-12-16T17:52:21.678Z,16.53
2018-12-16T17:54:51.303Z,15.70
2018-12-16T17:57:20.936Z,15.93
2018-12-16T17:59:53.580Z,16.93
2018-12-16T18:02:23.601Z,15.70
2018-12-16T18:04:53.219Z,16.20
2018-12-16T18:07:22.871Z,16.10
2018-12-16T18:09:52.464Z,16.80
2018-12-16T18:12:23.635Z,17.90
2018-12-16T18:14:53.314Z,16.40
2018-12-16T18:17:22.923Z,15.37
2018-12-16T18:19:52.501Z,15.40
2018-12-16T18:22:22.361Z,17.07
2018-12-16T18:24:53.243Z,16.70
2018-12-16T18:27:25.112Z,17.17
2018-12-16T18:29:54.976Z,16.93
2018-12-16T18:32:24.596Z,17.33
2018-12-16T18:35:00.429Z,17.57
2018-12-16T18:37:30.352Z,16.50
2018-12-16T18:40:00.062Z,16.07
2018-12-16T18:42:33.250Z,16.90
2018-12-16T18:45:03.234Z,17.87
2018-12-16T18:47:34.177Z,17.73
2018-12-16T18:50:07.978Z,23.43
2018-12-16T18:52:39.147Z,18.37
2018-12-16T18:55:11.338Z,18.60
2018-12-16T18:57:45.076Z,17.43
2018-12-16T19:00:16.110Z,17.73
2018-12-16T19:02:52.234Z,18.27
2018-12-16T19:05:25.284Z,19.67
2018-12-16T19:07:56.728Z,19.53
2018-12-16T19:10:33.454Z,20.63
2018-12-16T19:13:08.387Z,20.97
2018-12-16T19:15:43.681Z,24.63
2018-12-16T19:18:14.851Z,28.23
2018-12-16T19:20:45.922Z,23.37
2018-12-16T19:23:19.931Z,21.47
2018-12-16T19:25:53.495Z,19.23
2018-12-16T19:28:24.567Z,18.83
2018-12-16T19:30:57.938Z,18.47
2018-12-16T19:33:30.468Z,17.60
2018-12-16T19:36:02.725Z,18.30
2018-12-16T19:38:33.016Z,17.97
2018-12-16T19:41:03.882Z,17.90
2018-12-16T19:43:37.075Z,19.73
2018-12-16T19:46:10.233Z,17.57
2018-12-16T19:48:43.806Z,19.03
2018-12-16T19:51:16.063Z,19.20
2018-12-16T19:53:49.119Z,18.40
2018-12-16T19:56:19.853Z,18.37
2018-12-16T19:58:52.438Z,19.13
2018-12-16T20:01:23.771Z,21.03
2018-12-16T20:03:59.629Z,21.80
2018-12-16T20:06:37.410Z,21.97
2018-12-16T20:09:11.938Z,23.93
2018-12-16T20:11:44.064Z,21.53
2018-12-16T20:14:17.565Z,21.70
2018-12-16T20:16:50.983Z,22.57
2018-12-16T20:19:22.330Z,20.87
2018-12-16T20:21:51.981Z,18.60
2018-12-16T20:24:22.560Z,19.90
2018-12-16T20:26:53.443Z,18.50
2018-12-16T20:29:24.020Z,18.97
2018-12-16T20:31:55.248Z,18.30
2018-12-16T20:34:25.881Z,19.80
2018-12-16T20:36:57.313Z,17.47
2018-12-16T20:39:28.520Z,17.23
2018-12-16T20:42:00.578Z,19.63
2018-12-16T20:44:31.720Z,16.80
2018-12-16T20:47:01.598Z,17.73
2018-12-16T20:49:31.745Z,17.43
2018-12-16T20:52:01.468Z,18.60
2018-12-16T20:54:34.275Z,16.97
2018-12-16T20:57:07.170Z,18.67
2018-12-16T20:59:37.380Z,15.07
2018-12-16T21:02:09.390Z,16.60
2018-12-16T21:04:39.567Z,18.10
2018-12-16T21:07:09.838Z,16.93
2018-12-16T21:09:39.958Z,15.60
2018-12-16T21:12:18.567Z,17.23
2018-12-16T21:14:54.004Z,16.57
2018-12-16T21:17:29.854Z,16.50
2018-12-16T21:20:02.588Z,17.40
2018-12-16T21:22:34.666Z,17.53
2018-12-16T21:25:06.983Z,15.73
2018-12-16T21:27:40.363Z,17.50
2018-12-16T21:30:12.567Z,16.57
2018-12-16T21:32:42.396Z,16.37
2018-12-16T21:35:12.296Z,17.93
2018-12-16T21:37:41.958Z,17.13
2018-12-16T21:40:17.907Z,17.30
2018-12-16T21:42:47.583Z,16.90
2018-12-16T21:45:17.399Z,18.00
2018-12-16T21:47:46.988Z,16.90
2018-12-16T21:50:17.651Z,17.47
2018-12-16T21:52:47.320Z,15.63
2018-12-16T21:55:18.815Z,16.70
2018-12-16T21:57:48.526Z,15.97
2018-12-16T22:00:20.082Z,16.83
2018-12-16T22:02:49.732Z,16.83
2018-12-16T22:08:04.090Z,15.57
2018-12-16T22:10:33.833Z,15.67
2018-12-16T22:13:04.472Z,15.77
2018-12-16T22:15:34.112Z,13.70
2018-12-16T22:18:05.398Z,15.23
2018-12-16T22:20:35.121Z,15.00
2018-12-16T22:23:08.491Z,15.30
2018-12-16T22:25:40.554Z,15.47
2018-12-16T22:28:10.329Z,14.23
2018-12-16T22:30:39.932Z,15.67
2018-12-16T22:33:09.539Z,14.50
2018-12-16T22:35:39.148Z,14.00
2018-12-16T22:38:08.751Z,14.17
2018-12-16T22:40:38.406Z,13.33
2018-12-16T22:43:08.120Z,13.10
2018-12-16T22:45:37.808Z,14.13
2018-12-16T22:48:07.458Z,14.13
2018-12-16T22:50:37.159Z,13.40
2018-12-16T22:53:07.391Z,13.17
2018-12-16T22:55:38.520Z,13.27
2018-12-16T22:58:08.113Z,13.50
2018-12-16T23:03:30.089Z,12.37
2018-12-16T23:06:02.259Z,11.70
2018-12-16T23:08:31.920Z,12.27
2018-12-16T23:11:01.537Z,11.97
2018-12-16T23:13:31.145Z,11.37
2018-12-16T23:16:03.403Z,10.87
2018-12-16T23:18:33.135Z,11.23
2018-12-16T23:21:03.692Z,10.93
2018-12-16T23:23:34.669Z,10.43
2018-12-16T23:26:05.515Z,10.67
2018-12-16T23:28:36.002Z,10.93
2018-12-16T23:31:08.927Z,10.67
2018-12-16T23:33:38.521Z,10.20
2018-12-16T23:36:08.969Z,10.20
2018-12-16T23:38:38.552Z,9.90
2018-12-16T23:41:08.562Z,10.10
2018-12-16T23:43:41.985Z,9.97
2018-12-16T23:46:11.673Z,11.10
2018-12-16T23:48:41.331Z,9.47
2018-12-16T23:51:11.129Z,10.03
2018-12-16T23:53:41.773Z,11.00
2018-12-16T23:56:11.358Z,9.73
2018-12-16T23:58:42.626Z,9.80
